Time;durP1;ratioP1;P1;durP2;ratioP2;P2;SDS_P1;SDS_P2;PMS_P1;PMS_P2;Temp;Humidity;BMP_temperature;BMP_pressure;BME280_temperature;BME280_humidity;BME280_pressure;Samples;Min_cycle;Max_cycle;Signal;HPM_P1;HPM_P2
2023/07/11 00:00:04;;;;;;;5.40;4.90;;;23.50;91.30;;;;;;4973334;28;20477;-64
2023/07/11 00:02:31;;;;;;;4.93;4.53;;;23.50;91.30;;;;;;4972586;28;20587;-63
2023/07/11 00:04:59;;;;;;;5.17;4.60;;;23.50;91.40;;;;;;4972577;28;20569;-64
2023/07/11 00:07:26;;;;;;;5.10;4.70;;;23.50;91.40;;;;;;4973189;28;20554;-63
2023/07/11 00:09:54;;;;;;;4.60;4.20;;;23.50;91.50;;;;;;4972402;28;20803;-64
2023/07/11 00:12:21;;;;;;;5.10;4.60;;;23.50;91.50;;;;;;4971247;28;20487;-64
2023/07/11 00:14:49;;;;;;;5.00;4.50;;;23.40;91.70;;;;;;4972749;28;20570;-65
2023/07/11 00:17:16;;;;;;;5.17;4.77;;;23.40;91.90;;;;;;4974558;28;20467;-64
2023/07/11 00:19:48;;;;;;;5.67;5.13;;;23.30;92.10;;;;;;4974615;28;20455;-64
2023/07/11 00:22:16;;;;;;;4.97;4.57;;;23.30;92.30;;;;;;4973066;28;20570;-64
2023/07/11 00:24:43;;;;;;;6.80;5.00;;;23.30;92.60;;;;;;4973617;28;20570;-64
2023/07/11 00:27:11;;;;;;;4.93;4.50;;;23.20;92.90;;;;;;4979697;28;20508;-64
2023/07/11 00:29:39;;;;;;;5.40;4.90;;;23.10;93.20;;;;;;4980946;28;20552;-63
2023/07/11 00:32:08;;;;;;;4.73;4.43;;;23.10;93.50;;;;;;4970907;28;20565;-63
2023/07/11 00:34:35;;;;;;;5.30;4.80;;;23.00;93.60;;;;;;4973404;28;20576;-63
2023/07/11 00:37:03;;;;;;;5.63;4.67;;;23.00;93.80;;;;;;4973289;28;20466;-63
2023/07/11 00:39:32;;;;;;;5.27;4.77;;;22.90;94.00;;;;;;4976904;28;20450;-64
2023/07/11 00:41:59;;;;;;;5.30;4.70;;;22.90;94.20;;;;;;4973254;28;20510;-64
2023/07/11 00:44:27;;;;;;;5.30;4.80;;;22.80;94.40;;;;;;4970238;28;20991;-64
2023/07/11 00:46:54;;;;;;;5.37;4.87;;;22.80;94.50;;;;;;4972790;28;20483;-64
2023/07/11 00:49:24;;;;;;;6.53;5.47;;;22.80;94.60;;;;;;4978580;28;20811;-64
2023/07/11 00:51:55;;;;;;;5.43;4.93;;;22.80;94.70;;;;;;4974571;28;20484;-64
2023/07/11 00:54:28;;;;;;;5.93;5.43;;;22.70;95.00;;;;;;4971557;28;20455;-63
2023/07/11 00:56:56;;;;;;;5.50;5.00;;;22.60;95.40;;;;;;4973940;28;20592;-64
2023/07/11 00:59:24;;;;;;;5.50;5.00;;;22.50;96.00;;;;;;4972858;28;20459;-64
2023/07/11 01:01:58;;;;;;;5.73;5.20;;;22.30;96.30;;;;;;4972318;28;20992;-63
2023/07/11 01:04:27;;;;;;;5.93;5.30;;;22.20;96.90;;;;;;4976218;28;20867;-63
2023/07/11 01:06:54;;;;;;;5.73;4.87;;;22.10;97.50;;;;;;4972254;28;20530;-65
2023/07/11 01:09:21;;;;;;;5.23;4.80;;;21.90;97.90;;;;;;4970578;28;20450;-65
2023/07/11 01:11:56;;;;;;;5.80;5.30;;;21.80;98.30;;;;;;4970999;28;20888;-64
2023/07/11 01:14:24;;;;;;;6.10;5.60;;;21.70;98.70;;;;;;4972563;28;20583;-64
2023/07/11 01:16:53;;;;;;;5.53;5.00;;;21.70;99.10;;;;;;4971434;28;20481;-64
2023/07/11 01:19:20;;;;;;;5.40;5.00;;;21.60;99.40;;;;;;4970823;28;21092;-64
2023/07/11 01:21:50;;;;;;;6.53;5.83;;;21.60;99.70;;;;;;4974948;28;20486;-64
2023/07/11 01:24:17;;;;;;;5.10;4.70;;;21.50;99.90;;;;;;4972501;28;20466;-64
2023/07/11 01:26:45;;;;;;;6.10;5.53;;;21.40;99.90;;;;;;4970052;28;20518;-63
2023/07/11 01:29:12;;;;;;;5.93;4.70;;;21.40;99.90;;;;;;4973121;28;20521;-64
2023/07/11 01:31:39;;;;;;;6.20;5.60;;;21.40;99.90;;;;;;4973642;28;20483;-64
2023/07/11 01:34:08;;;;;;;4.93;4.50;;;21.40;99.90;;;;;;4971408;28;20545;-64
2023/07/11 01:36:35;;;;;;;6.30;5.70;;;21.40;99.90;;;;;;4971402;28;20577;-64
2023/07/11 01:39:06;;;;;;;5.70;5.20;;;21.30;99.90;;;;;;4974962;28;20544;-64
2023/07/11 01:41:34;;;;;;;6.00;5.43;;;21.30;99.90;;;;;;4970942;28;20846;-63
2023/07/11 01:44:02;;;;;;;6.30;5.70;;;21.30;99.90;;;;;;4970209;28;20548;-64
2023/07/11 01:46:29;;;;;;;6.13;5.63;;;21.20;99.90;;;;;;4974961;28;20500;-64
2023/07/11 01:48:56;;;;;;;6.70;6.00;;;21.20;99.90;;;;;;4972363;28;20504;-64
2023/07/11 01:51:24;;;;;;;6.60;6.00;;;21.10;99.90;;;;;;4970892;28;20533;-64
2023/07/11 01:53:51;;;;;;;6.60;6.10;;;21.10;99.90;;;;;;4974903;28;20497;-64
2023/07/11 01:56:20;;;;;;;6.63;6.03;;;21.10;99.90;;;;;;4973915;28;21061;-64
2023/07/11 01:58:47;;;;;;;7.03;6.30;;;21.00;99.90;;;;;;4976335;28;20447;-64
2023/07/11 02:01:15;;;;;;;6.40;5.90;;;21.00;99.90;;;;;;4970989;28;20482;-64
2023/07/11 02:03:42;;;;;;;6.60;6.00;;;21.00;99.90;;;;;;4972625;28;20486;-63
2023/07/11 02:06:09;;;;;;;6.70;5.53;;;21.00;99.90;;;;;;4972889;28;20467;-63
2023/07/11 02:08:36;;;;;;;7.40;5.80;;;20.90;99.90;;;;;;4970884;28;20465;-63
2023/07/11 02:11:03;;;;;;;6.13;5.53;;;20.90;99.90;;;;;;4972867;28;20496;-63
2023/07/11 02:13:32;;;;;;;7.73;5.33;;;20.80;99.90;;;;;;4972260;28;20462;-63
2023/07/11 02:15:59;;;;;;;6.77;6.13;;;20.80;99.90;;;;;;4974807;28;20630;-63
2023/07/11 02:18:26;;;;;;;6.30;5.80;;;20.70;99.90;;;;;;4970535;28;20894;-63
2023/07/11 02:20:56;;;;;;;6.80;5.73;;;20.70;99.90;;;;;;4971575;28;20505;-63
2023/07/11 02:23:24;;;;;;;5.67;5.17;;;20.70;99.90;;;;;;4972785;28;20462;-63
2023/07/11 02:25:53;;;;;;;6.23;5.73;;;20.70;99.90;;;;;;4968460;28;20516;-63
2023/07/11 02:28:20;;;;;;;6.17;5.63;;;20.70;99.90;;;;;;4971442;28;20470;-63
2023/07/11 02:30:49;;;;;;;6.10;5.60;;;20.70;99.90;;;;;;4970913;28;20566;-63
2023/07/11 02:33:16;;;;;;;6.53;5.93;;;20.70;99.90;;;;;;4970206;28;20470;-63
2023/07/11 02:35:43;;;;;;;5.80;5.30;;;20.60;99.90;;;;;;4973827;28;20629;-63
2023/07/11 02:38:11;;;;;;;6.23;5.63;;;20.70;99.90;;;;;;4977351;28;20479;-63
2023/07/11 02:40:38;;;;;;;6.27;5.67;;;20.70;99.90;;;;;;4974051;28;20569;-64
2023/07/11 02:43:05;;;;;;;5.80;5.20;;;20.60;99.90;;;;;;4970877;28;20470;-64
2023/07/11 02:45:32;;;;;;;5.97;5.57;;;20.70;99.90;;;;;;4970928;28;21077;-64
2023/07/11 02:48:00;;;;;;;6.70;5.90;;;20.60;99.90;;;;;;4970784;28;20461;-64
2023/07/11 02:50:27;;;;;;;6.20;5.70;;;20.60;99.90;;;;;;4969526;28;20479;-64
2023/07/11 02:52:55;;;;;;;6.10;5.57;;;20.50;99.90;;;;;;4971553;28;20564;-64
2023/07/11 02:55:23;;;;;;;8.13;6.27;;;20.50;99.90;;;;;;4980274;28;20482;-63
2023/07/11 02:57:50;;;;;;;6.30;5.80;;;20.50;99.90;;;;;;4976739;28;20450;-64
2023/07/11 03:00:18;;;;;;;6.87;6.20;;;20.40;99.90;;;;;;4974052;28;20579;-64
2023/07/11 03:02:45;;;;;;;5.60;5.17;;;20.40;99.90;;;;;;4973706;28;20528;-64
2023/07/11 03:05:13;;;;;;;6.73;5.50;;;20.30;99.90;;;;;;4974291;28;20496;-63
2023/07/11 03:07:41;;;;;;;6.20;5.60;;;20.30;99.90;;;;;;4974127;28;20465;-63
2023/07/11 03:10:09;;;;;;;6.83;5.70;;;20.30;99.90;;;;;;4971741;28;20481;-64
2023/07/11 03:12:35;;;;;;;5.37;4.97;;;20.20;99.90;;;;;;4972737;28;20451;-63
2023/07/11 03:15:03;;;;;;;5.90;5.40;;;20.20;99.90;;;;;;4973577;28;20462;-64
2023/07/11 03:17:30;;;;;;;6.00;5.40;;;20.20;99.90;;;;;;4973864;28;20462;-64
2023/07/11 03:19:57;;;;;;;5.87;5.23;;;20.20;99.90;;;;;;4973462;28;20568;-63
2023/07/11 03:22:25;;;;;;;5.90;5.40;;;20.20;99.90;;;;;;4973616;28;20468;-64
2023/07/11 03:24:52;;;;;;;5.17;4.70;;;20.20;99.90;;;;;;4975803;28;20465;-64
2023/07/11 03:27:19;;;;;;;5.57;5.07;;;20.20;99.90;;;;;;4976306;28;20472;-64
2023/07/11 03:29:46;;;;;;;5.60;5.20;;;20.10;99.90;;;;;;4972048;28;20488;-64
2023/07/11 03:32:13;;;;;;;6.33;5.20;;;20.10;99.90;;;;;;4973666;28;20457;-64
2023/07/11 03:34:40;;;;;;;5.60;5.10;;;20.00;99.90;;;;;;4974229;28;20461;-64
2023/07/11 03:37:07;;;;;;;6.20;5.67;;;19.90;99.90;;;;;;4975055;28;20494;-64
2023/07/11 03:39:36;;;;;;;5.23;4.83;;;19.90;99.90;;;;;;4975667;28;21035;-64
2023/07/11 03:42:02;;;;;;;5.60;5.07;;;19.90;99.90;;;;;;4973670;28;20448;-64
2023/07/11 03:44:30;;;;;;;5.70;5.20;;;19.90;99.90;;;;;;4973546;28;20461;-64
2023/07/11 03:46:57;;;;;;;6.20;5.60;;;19.90;99.90;;;;;;4974091;28;20485;-64
2023/07/11 03:49:24;;;;;;;5.80;5.30;;;19.80;99.90;;;;;;4974887;28;20470;-64
2023/07/11 03:51:51;;;;;;;5.40;4.93;;;19.80;99.90;;;;;;4973642;28;20826;-64
2023/07/11 03:54:18;;;;;;;5.67;5.27;;;19.80;99.90;;;;;;4973078;28;20449;-63
2023/07/11 03:56:46;;;;;;;6.30;5.80;;;19.80;99.90;;;;;;4972600;28;20492;-66
2023/07/11 03:59:14;;;;;;;6.33;5.80;;;19.80;99.90;;;;;;4968884;28;20511;-67
2023/07/11 04:01:41;;;;;;;5.70;5.30;;;19.80;99.90;;;;;;4970657;28;20985;-67
2023/07/11 04:04:08;;;;;;;6.03;5.53;;;19.70;99.90;;;;;;4970834;28;20486;-65
2023/07/11 04:06:35;;;;;;;5.70;5.30;;;19.60;99.90;;;;;;4967590;28;20467;-67
2023/07/11 04:09:03;;;;;;;6.57;5.33;;;19.60;99.90;;;;;;4976064;28;20462;-65
2023/07/11 04:11:30;;;;;;;5.53;5.13;;;19.60;99.90;;;;;;4972215;28;20498;-64
2023/07/11 04:14:00;;;;;;;5.93;5.47;;;19.50;99.90;;;;;;4970723;28;21865;-64
2023/07/11 04:16:27;;;;;;;6.00;5.50;;;19.50;99.90;;;;;;4968909;28;20982;-67
2023/07/11 04:18:54;;;;;;;5.50;5.00;;;19.40;99.90;;;;;;4973237;28;20667;-64
2023/07/11 04:21:21;;;;;;;6.20;5.70;;;19.40;99.90;;;;;;4973321;28;20484;-65
2023/07/11 04:23:49;;;;;;;6.20;5.60;;;19.40;99.90;;;;;;4971858;28;20599;-65
2023/07/11 04:26:16;;;;;;;5.93;5.33;;;19.30;99.90;;;;;;4972579;28;20470;-64
2023/07/11 04:28:43;;;;;;;5.80;5.30;;;19.30;99.90;;;;;;4972434;28;20462;-66
2023/07/11 04:31:13;;;;;;;6.57;5.30;;;19.30;99.90;;;;;;4972001;28;20476;-65
2023/07/11 04:33:40;;;;;;;6.47;5.90;;;19.40;99.90;;;;;;4972663;28;20455;-64
2023/07/11 04:36:10;;;;;;;6.03;5.53;;;19.40;99.90;;;;;;4973478;28;21097;-66
2023/07/11 04:38:37;;;;;;;5.77;5.27;;;19.40;99.90;;;;;;4963239;28;20843;-66
2023/07/11 04:41:05;;;;;;;6.27;5.63;;;19.50;99.90;;;;;;4963273;28;20488;-66
2023/07/11 04:43:34;;;;;;;5.83;5.23;;;19.50;99.90;;;;;;4966115;28;20507;-66
2023/07/11 04:46:02;;;;;;;6.00;5.60;;;19.50;99.90;;;;;;4966856;28;20461;-66
2023/07/11 04:48:31;;;;;;;6.20;5.80;;;19.50;99.90;;;;;;4966414;28;20468;-65
2023/07/11 04:50:59;;;;;;;7.97;6.13;;;19.60;99.90;;;;;;4970302;28;20489;-66
2023/07/11 04:53:27;;;;;;;6.80;6.20;;;19.60;99.90;;;;;;4971255;28;20486;-67
2023/07/11 04:55:58;;;;;;;6.73;6.13;;;19.60;99.90;;;;;;4975338;28;20477;-66
2023/07/11 04:58:25;;;;;;;7.13;6.43;;;19.70;99.90;;;;;;4964267;28;20466;-67
2023/07/11 05:01:00;;;;;;;6.30;5.80;;;19.80;99.90;;;;;;4968671;28;20485;-67
2023/07/11 05:03:27;;;;;;;7.70;7.00;;;19.80;99.90;;;;;;4967294;28;20452;-67
2023/07/11 05:05:56;;;;;;;7.10;6.50;;;19.90;99.90;;;;;;4969429;28;20465;-69
2023/07/11 05:08:23;;;;;;;7.50;6.73;;;19.90;99.90;;;;;;4968563;28;20516;-67
2023/07/11 05:10:53;;;;;;;8.30;6.87;;;20.00;99.90;;;;;;4970515;28;20496;-67
2023/07/11 05:13:20;;;;;;;9.43;7.17;;;20.00;99.90;;;;;;4970413;28;20565;-67
2023/07/11 05:15:47;;;;;;;6.83;6.33;;;20.10;99.90;;;;;;4972625;28;20548;-67
2023/07/11 05:18:14;;;;;;;8.13;7.37;;;20.20;99.90;;;;;;4964627;28;20465;-67
2023/07/11 05:20:42;;;;;;;7.30;6.60;;;20.30;99.90;;;;;;4969195;28;20870;-66
2023/07/11 05:23:10;;;;;;;7.30;6.70;;;20.30;99.90;;;;;;4967757;28;20533;-67
2023/07/11 05:25:38;;;;;;;7.87;7.17;;;20.40;99.90;;;;;;4968866;28;20970;-67
2023/07/11 05:28:05;;;;;;;7.33;6.63;;;20.50;99.90;;;;;;4972046;28;20493;-67
2023/07/11 05:30:32;;;;;;;7.80;7.20;;;20.60;99.90;;;;;;4968269;28;20486;-67
2023/07/11 05:32:59;;;;;;;7.10;6.40;;;20.60;99.90;;;;;;4967032;28;20494;-68
2023/07/11 05:35:26;;;;;;;7.50;6.80;;;20.70;99.90;;;;;;4968504;28;20457;-67
2023/07/11 05:37:53;;;;;;;8.23;7.40;;;20.80;99.90;;;;;;4967482;28;20559;-67
2023/07/11 05:40:25;;;;;;;7.57;6.93;;;20.90;99.90;;;;;;4968007;28;20483;-67
2023/07/11 05:42:52;;;;;;;7.90;7.10;;;21.00;99.90;;;;;;4970964;28;20535;-67
2023/07/11 05:45:19;;;;;;;7.63;6.93;;;21.00;99.90;;;;;;4968816;28;20541;-67
2023/07/11 05:47:46;;;;;;;7.40;6.80;;;21.00;99.90;;;;;;4974597;28;20458;-67
2023/07/11 05:50:13;;;;;;;7.80;7.10;;;21.10;99.90;;;;;;4967848;28;21075;-67
2023/07/11 05:52:40;;;;;;;7.77;7.10;;;21.10;99.90;;;;;;4970896;28;20485;-67
2023/07/11 05:55:08;;;;;;;7.47;6.87;;;21.20;99.90;;;;;;4975190;28;20541;-66
2023/07/11 05:57:37;;;;;;;8.50;7.70;;;21.30;99.90;;;;;;4976276;28;20572;-67
2023/07/11 06:00:05;;;;;;;11.47;7.47;;;21.40;99.90;;;;;;4968440;28;20489;-67
2023/07/11 06:02:32;;;;;;;7.43;6.73;;;21.50;99.90;;;;;;4969070;28;20987;-67
2023/07/11 06:04:59;;;;;;;7.27;6.63;;;21.60;99.90;;;;;;4974961;28;20454;-67
2023/07/11 06:07:27;;;;;;;8.00;7.20;;;21.60;99.90;;;;;;4977369;28;20466;-66
2023/07/11 06:09:55;;;;;;;8.10;6.70;;;21.70;99.90;;;;;;4977215;28;20485;-64
2023/07/11 06:12:22;;;;;;;7.43;6.43;;;21.80;99.90;;;;;;4969402;28;20471;-65
2023/07/11 06:14:51;;;;;;;7.50;6.80;;;21.90;99.90;;;;;;4974333;28;20466;-64
2023/07/11 06:17:18;;;;;;;6.77;6.13;;;22.00;99.90;;;;;;4969736;28;20865;-64
2023/07/11 06:19:45;;;;;;;6.70;6.20;;;22.00;99.90;;;;;;4970206;28;21006;-65
2023/07/11 06:22:14;;;;;;;7.03;6.30;;;22.10;99.90;;;;;;4975465;28;20869;-65
2023/07/11 06:24:41;;;;;;;6.70;6.00;;;22.30;99.90;;;;;;4975446;28;20462;-65
2023/07/11 06:27:08;;;;;;;8.23;5.93;;;22.40;99.90;;;;;;4968316;28;20455;-65
2023/07/11 06:29:35;;;;;;;7.60;6.87;;;22.50;99.90;;;;;;4979850;28;20477;-65
2023/07/11 06:32:05;;;;;;;6.90;6.00;;;22.60;99.90;;;;;;4977010;28;20970;-65
2023/07/11 06:34:32;;;;;;;6.73;5.93;;;22.70;99.90;;;;;;4977415;28;20453;-65
2023/07/11 06:36:59;;;;;;;7.50;6.80;;;22.80;99.90;;;;;;4979838;28;20490;-65
2023/07/11 06:39:26;;;;;;;6.30;5.30;;;22.90;99.90;;;;;;4973940;28;20525;-65
2023/07/11 06:41:53;;;;;;;6.63;5.73;;;23.00;99.90;;;;;;4973704;28;21148;-66
2023/07/11 06:44:21;;;;;;;6.40;5.73;;;23.10;99.90;;;;;;4974920;28;20463;-65
2023/07/11 06:46:48;;;;;;;6.50;5.90;;;23.20;99.90;;;;;;4975208;28;20882;-65
2023/07/11 06:49:16;;;;;;;6.23;5.70;;;23.30;99.90;;;;;;4977322;28;20454;-64
2023/07/11 06:51:43;;;;;;;6.13;5.53;;;23.30;99.90;;;;;;4970717;28;20468;-64
2023/07/11 06:54:10;;;;;;;5.50;5.00;;;23.50;99.90;;;;;;4970011;28;20467;-64
2023/07/11 06:56:38;;;;;;;6.13;5.63;;;23.60;99.90;;;;;;4976834;28;20577;-65
2023/07/11 06:59:05;;;;;;;6.03;5.50;;;23.80;99.90;;;;;;4971060;28;20498;-64
2023/07/11 07:01:32;;;;;;;8.07;5.90;;;23.90;99.90;;;;;;4975638;28;20546;-63
2023/07/11 07:04:00;;;;;;;6.73;5.70;;;24.00;99.90;;;;;;4980267;28;20455;-64
2023/07/11 07:06:28;;;;;;;5.67;5.10;;;24.20;99.90;;;;;;4973047;28;20461;-64
2023/07/11 07:08:55;;;;;;;6.10;5.17;;;24.40;99.90;;;;;;4973504;28;20458;-63
2023/07/11 07:11:22;;;;;;;6.17;5.20;;;24.50;99.90;;;;;;4982988;28;20483;-65
2023/07/11 07:13:49;;;;;;;6.70;6.00;;;24.70;99.90;;;;;;4974343;28;20818;-65
2023/07/11 07:16:17;;;;;;;6.23;5.73;;;24.80;99.90;;;;;;4975918;28;20831;-66
2023/07/11 07:18:44;;;;;;;6.70;5.63;;;24.90;99.90;;;;;;4975127;28;20545;-66
2023/07/11 07:21:11;;;;;;;7.17;5.67;;;25.00;99.90;;;;;;4976633;28;20478;-74
2023/07/11 07:23:39;;;;;;;6.80;5.50;;;25.10;99.90;;;;;;4975278;28;20458;-67
2023/07/11 07:26:06;;;;;;;6.30;5.70;;;25.30;99.90;;;;;;4972423;28;20485;-66
2023/07/11 07:28:35;;;;;;;5.97;5.47;;;25.50;99.90;;;;;;4974520;28;22880;-66
2023/07/11 07:31:05;;;;;;;5.70;5.20;;;25.60;99.90;;;;;;4974442;28;20497;-67
2023/07/11 07:33:32;;;;;;;6.33;5.73;;;25.70;99.90;;;;;;4977347;28;20472;-66
2023/07/11 07:36:02;;;;;;;6.10;5.53;;;26.00;99.90;;;;;;4971311;28;20962;-66
2023/07/11 07:38:30;;;;;;;6.10;5.50;;;26.20;99.90;;;;;;4969495;28;20586;-67
2023/07/11 07:41:00;;;;;;;5.83;5.27;;;26.30;99.90;;;;;;4971323;28;20475;-66
2023/07/11 07:43:29;;;;;;;6.23;5.50;;;26.40;99.90;;;;;;4973083;28;20458;-67
2023/07/11 07:45:59;;;;;;;5.90;5.30;;;26.70;99.90;;;;;;4971699;28;20471;-66
2023/07/11 07:48:26;;;;;;;5.73;4.83;;;27.20;99.90;;;;;;4981879;28;21694;-68
2023/07/11 07:50:54;;;;;;;5.70;5.20;;;27.30;99.90;;;;;;4977423;28;20483;-68
2023/07/11 07:53:21;;;;;;;6.00;5.50;;;27.40;99.90;;;;;;4976528;28;20819;-68
2023/07/11 07:55:48;;;;;;;4.97;4.57;;;27.60;99.90;;;;;;4979835;28;20538;-68
2023/07/11 07:58:16;;;;;;;5.43;4.93;;;27.60;99.90;;;;;;4974592;28;20850;-67
2023/07/11 08:00:43;;;;;;;6.03;5.43;;;27.70;99.80;;;;;;4972906;28;20832;-66
2023/07/11 08:03:10;;;;;;;5.77;5.37;;;27.70;99.60;;;;;;4972313;28;20451;-67
2023/07/11 08:05:37;;;;;;;6.50;5.50;;;27.80;99.00;;;;;;4971484;28;20464;-67
2023/07/11 08:08:05;;;;;;;5.37;4.97;;;27.80;99.30;;;;;;4973037;28;20498;-64
2023/07/11 08:10:33;;;;;;;5.50;5.10;;;28.00;98.60;;;;;;4973408;28;20467;-67
2023/07/11 08:13:00;;;;;;;5.73;5.27;;;28.00;99.00;;;;;;4978957;28;20546;-67
2023/07/11 08:15:29;;;;;;;6.00;5.47;;;28.20;98.20;;;;;;4973284;28;20491;-67
2023/07/11 08:17:56;;;;;;;5.97;5.47;;;28.30;97.00;;;;;;4973069;28;20490;-66
2023/07/11 08:20:23;;;;;;;6.17;5.40;;;28.40;96.40;;;;;;4974342;28;20485;-68
2023/07/11 08:22:50;;;;;;;5.90;5.43;;;28.50;96.90;;;;;;4972366;28;20502;-68
2023/07/11 08:25:17;;;;;;;6.17;5.57;;;28.60;95.90;;;;;;4974210;28;20454;-69
2023/07/11 08:27:44;;;;;;;5.83;5.33;;;28.70;95.20;;;;;;4973230;28;20459;-63
2023/07/11 08:30:12;;;;;;;6.00;5.50;;;28.80;95.20;;;;;;4967831;28;20828;-81
2023/07/11 08:32:40;;;;;;;5.50;5.10;;;29.00;95.40;;;;;;4975578;28;20546;-65
2023/07/11 08:35:08;;;;;;;5.80;5.30;;;29.20;94.50;;;;;;4968519;28;20470;-65
2023/07/11 08:37:35;;;;;;;5.83;5.43;;;29.30;93.60;;;;;;4972573;28;20478;-65
2023/07/11 08:40:02;;;;;;;5.43;4.93;;;29.40;93.70;;;;;;4971728;28;20576;-65
2023/07/11 08:42:33;;;;;;;6.40;5.90;;;29.60;93.90;;;;;;4971817;28;20462;-65
2023/07/11 08:45:05;;;;;;;6.17;5.40;;;29.80;93.60;;;;;;4971979;28;20454;-67
2023/07/11 08:47:38;;;;;;;6.00;5.50;;;29.80;93.00;;;;;;4974479;28;20462;-70
2023/07/11 08:50:12;;;;;;;5.40;5.00;;;29.90;93.20;;;;;;4971072;28;20549;-70
2023/07/11 08:52:40;;;;;;;6.73;6.03;;;30.10;92.80;;;;;;4980515;28;20449;-74
2023/07/11 08:55:13;;;;;;;6.10;5.53;;;30.20;93.10;;;;;;4980895;28;20451;-73
2023/07/11 08:57:45;;;;;;;6.10;5.57;;;30.20;93.50;;;;;;4972840;28;20462;-71
2023/07/11 09:00:16;;;;;;;6.13;5.73;;;30.20;92.60;;;;;;4971293;28;20479;-69
2023/07/11 09:02:55;;;;;;;5.57;5.17;;;30.20;92.90;;;;;;4974740;28;20465;-73
2023/07/11 09:05:36;;;;;;;5.97;5.30;;;30.40;92.30;;;;;;4972020;28;20463;-73
2023/07/11 09:08:03;;;;;;;6.17;5.60;;;30.40;92.00;;;;;;4971491;28;20831;-74
2023/07/11 09:10:43;;;;;;;5.60;5.17;;;30.70;92.60;;;;;;4970352;28;21006;-74
2023/07/11 09:13:24;;;;;;;5.60;5.20;;;30.80;92.10;;;;;;4976566;28;20981;-74
2023/07/11 09:15:59;;;;;;;6.30;5.70;;;31.00;92.00;;;;;;4973469;28;20989;-70
2023/07/11 09:18:42;;;;;;;7.07;6.10;;;31.20;91.80;;;;;;4973221;28;20497;-64
2023/07/11 09:21:16;;;;;;;6.40;5.90;;;31.30;91.70;;;;;;4972744;28;20461;-83
2023/07/11 09:23:53;;;;;;;5.60;5.20;;;31.40;91.60;;;;;;4973954;28;20451;-74
2023/07/11 09:26:25;;;;;;;6.87;6.17;;;31.70;92.20;;;;;;4972411;28;20501;-73
2023/07/11 09:29:00;;;;;;;6.00;5.50;;;31.80;90.90;;;;;;4975098;28;20443;-73
2023/07/11 09:31:33;;;;;;;6.73;6.10;;;32.00;90.50;;;;;;4972884;28;20536;-71
2023/07/11 09:34:05;;;;;;;6.60;6.10;;;32.10;91.40;;;;;;4971294;28;20455;-69
2023/07/11 09:36:38;;;;;;;6.33;5.73;;;32.00;91.10;;;;;;4972186;28;20582;-75
2023/07/11 09:39:16;;;;;;;6.20;5.70;;;32.00;91.30;;;;;;4973400;28;20491;-72
2023/07/11 09:41:59;;;;;;;6.50;6.10;;;32.10;91.40;;;;;;4971220;28;20804;-70
2023/07/11 09:44:26;;;;;;;6.37;5.80;;;32.10;91.40;;;;;;4972095;28;20565;-71
2023/07/11 09:46:53;;;;;;;6.33;5.83;;;32.30;91.50;;;;;;4971084;28;20815;-71
2023/07/11 09:49:28;;;;;;;7.50;6.80;;;32.50;91.70;;;;;;4969760;28;20506;-72
2023/07/11 09:52:01;;;;;;;8.20;6.47;;;32.60;90.80;;;;;;4973729;28;20815;-72
2023/07/11 09:54:42;;;;;;;7.27;6.53;;;32.70;91.00;;;;;;4977792;28;20465;-72
2023/07/11 09:57:11;;;;;;;7.10;6.50;;;32.90;90.10;;;;;;4967483;28;20459;-72
2023/07/11 09:59:38;;;;;;;6.53;6.03;;;33.00;88.60;;;;;;4971070;28;20489;-72
2023/07/11 10:02:06;;;;;;;7.40;6.70;;;32.90;89.50;;;;;;4975389;28;20984;-73
2023/07/11 10:04:33;;;;;;;7.83;7.23;;;33.10;88.10;;;;;;4977385;28;20517;-71
2023/07/11 10:07:03;;;;;;;7.13;6.40;;;32.90;87.70;;;;;;4979613;28;20464;-72
2023/07/11 10:09:32;;;;;;;6.87;6.27;;;33.00;88.00;;;;;;4977576;28;20553;-71
2023/07/11 10:12:01;;;;;;;7.20;6.50;;;33.30;87.50;;;;;;4974470;28;20945;-72
2023/07/11 10:14:31;;;;;;;6.93;6.23;;;33.90;87.10;;;;;;4980038;28;20863;-71
2023/07/11 10:16:59;;;;;;;6.87;6.37;;;34.30;84.70;;;;;;4976698;28;20454;-72
2023/07/11 10:19:28;;;;;;;7.70;6.97;;;35.20;82.70;;;;;;4981441;28;21025;-71
2023/07/11 10:21:59;;;;;;;7.40;6.70;;;35.70;79.10;;;;;;4976827;28;20983;-72
2023/07/11 10:24:37;;;;;;;6.50;6.03;;;36.10;78.80;;;;;;4978770;28;20463;-72
2023/07/11 10:27:11;;;;;;;7.30;6.70;;;36.70;77.70;;;;;;4977509;28;20541;-72
2023/07/11 10:29:44;;;;;;;7.53;6.50;;;37.30;76.70;;;;;;4977845;28;20564;-72
2023/07/11 10:32:17;;;;;;;6.90;6.40;;;37.10;74.50;;;;;;4977929;28;20458;-71
2023/07/11 10:34:50;;;;;;;6.37;5.93;;;36.80;74.40;;;;;;4971968;28;20466;-72
2023/07/11 10:37:26;;;;;;;7.27;6.57;;;36.90;73.90;;;;;;4975752;28;20753;-71
2023/07/11 10:39:58;;;;;;;7.60;6.90;;;37.00;74.00;;;;;;4974285;28;20563;-71
2023/07/11 10:42:30;;;;;;;7.20;6.60;;;36.90;72.30;;;;;;4974889;28;21807;-71
2023/07/11 10:45:06;;;;;;;6.90;6.40;;;36.60;72.50;;;;;;4978550;28;20469;-72
2023/07/11 10:47:37;;;;;;;8.07;6.47;;;36.70;73.50;;;;;;4975129;28;21037;-71
2023/07/11 10:50:16;;;;;;;6.90;6.40;;;36.10;73.30;;;;;;4974402;28;20933;-71
2023/07/11 10:52:51;;;;;;;6.97;6.30;;;35.00;74.70;;;;;;4968611;28;20460;-71
2023/07/11 10:55:24;;;;;;;6.50;5.87;;;35.20;74.00;;;;;;4971113;28;21960;-72
2023/07/11 10:57:53;;;;;;;6.67;6.07;;;35.60;73.50;;;;;;4971000;28;20866;-71
2023/07/11 11:00:25;;;;;;;6.50;6.00;;;35.80;72.60;;;;;;4969589;28;20668;-71
2023/07/11 11:03:02;;;;;;;7.00;6.40;;;36.20;72.40;;;;;;4977130;28;20458;-72
2023/07/11 11:05:43;;;;;;;6.80;6.30;;;36.10;72.50;;;;;;4972887;28;20454;-72
2023/07/11 11:08:17;;;;;;;6.73;6.17;;;36.10;71.80;;;;;;4971799;28;20831;-72
2023/07/11 11:10:55;;;;;;;6.43;5.93;;;36.30;71.20;;;;;;4971684;28;20533;-73
2023/07/11 11:13:28;;;;;;;6.43;5.93;;;36.60;70.50;;;;;;4979211;28;20454;-71
2023/07/11 11:16:02;;;;;;;6.93;6.23;;;36.90;69.50;;;;;;4975586;28;20467;-75
2023/07/11 11:18:40;;;;;;;6.83;6.20;;;37.10;68.70;;;;;;4978939;28;20581;-71
2023/07/11 11:21:13;;;;;;;6.90;6.20;;;36.80;68.50;;;;;;4974010;28;20517;-70
2023/07/11 11:23:57;;;;;;;6.47;5.80;;;36.40;69.40;;;;;;4977378;28;22202;-70
2023/07/11 11:26:33;;;;;;;6.10;5.70;;;36.50;69.60;;;;;;4978750;28;20451;-71
2023/07/11 11:29:10;;;;;;;6.93;6.23;;;37.00;68.60;;;;;;4977546;28;20510;-70
2023/07/11 11:31:44;;;;;;;6.53;6.03;;;37.40;68.00;;;;;;4970612;28;20462;-71
2023/07/11 11:34:28;;;;;;;7.30;6.60;;;36.60;67.90;;;;;;4974034;28;20577;-71
2023/07/11 11:37:04;;;;;;;7.33;6.10;;;36.70;69.20;;;;;;4969529;28;20967;-74
2023/07/11 11:39:50;;;;;;;6.63;6.03;;;37.50;68.50;;;;;;4974073;28;20582;-72
2023/07/11 11:42:24;;;;;;;7.20;6.50;;;38.00;66.40;;;;;;4978931;28;20525;-72
2023/07/11 11:44:57;;;;;;;6.37;5.97;;;38.70;64.70;;;;;;4976781;28;20491;-73
2023/07/11 11:47:26;;;;;;;6.50;6.10;;;39.10;64.20;;;;;;4978676;28;20468;-73
2023/07/11 11:49:55;;;;;;;6.93;6.43;;;39.60;61.80;;;;;;4973387;28;21486;-73
2023/07/11 11:52:24;;;;;;;6.50;6.00;;;39.50;61.80;;;;;;4972837;28;20478;-73
2023/07/11 11:54:52;;;;;;;6.47;5.97;;;39.70;61.30;;;;;;4974886;28;20996;-75
2023/07/11 11:57:24;;;;;;;6.40;6.00;;;40.00;60.90;;;;;;4974499;28;20562;-74
2023/07/11 11:59:53;;;;;;;6.70;6.10;;;40.40;60.20;;;;;;4974956;28;20498;-74
2023/07/11 12:02:32;;;;;;;6.90;6.37;;;40.70;59.40;;;;;;4972524;28;21012;-73
2023/07/11 12:05:03;;;;;;;6.50;6.10;;;40.70;59.60;;;;;;4970879;28;20459;-73
2023/07/11 12:07:35;;;;;;;6.83;6.33;;;41.10;58.50;;;;;;4969502;28;20533;-74
2023/07/11 12:10:12;;;;;;;6.93;6.30;;;41.60;57.20;;;;;;4966731;28;20482;-74
2023/07/11 12:13:19;;;;;;;6.20;5.80;;;41.60;56.00;;;;;;4970589;28;20470;-74
2023/07/11 12:15:53;;;;;;;6.60;6.20;;;41.90;56.50;;;;;;4970302;28;20466;-73
2023/07/11 12:18:31;;;;;;;6.70;6.20;;;41.00;57.20;;;;;;4976095;28;20555;-72
2023/07/11 12:21:16;;;;;;;6.77;6.20;;;40.60;58.10;;;;;;4974256;28;20976;-72
2023/07/11 12:23:45;;;;;;;7.33;6.73;;;40.80;56.50;;;;;;4972421;28;21931;-73
2023/07/11 12:26:16;;;;;;;6.63;6.00;;;41.40;55.30;;;;;;4970507;28;20513;-73
2023/07/11 12:28:45;;;;;;;7.27;6.63;;;41.10;57.10;;;;;;4974466;28;20557;-73
2023/07/11 12:31:20;;;;;;;6.47;5.93;;;40.70;56.40;;;;;;4968484;28;20460;-73
2023/07/11 12:34:00;;;;;;;7.03;6.37;;;41.00;56.20;;;;;;4968487;28;20549;-73
2023/07/11 12:36:57;;;;;;;6.83;6.33;;;41.00;56.30;;;;;;4968337;28;20458;-73
2023/07/11 12:39:35;;;;;;;7.30;6.70;;;41.10;56.20;;;;;;4974134;28;20494;-73
2023/07/11 12:42:14;;;;;;;7.40;6.90;;;40.10;56.30;;;;;;4972715;28;20461;-71
2023/07/11 12:44:41;;;;;;;7.40;6.80;;;39.30;58.60;;;;;;4971275;28;20461;-73
2023/07/11 12:47:16;;;;;;;6.83;6.33;;;39.10;58.60;;;;;;4970975;28;21069;-73
2023/07/11 12:49:46;;;;;;;7.77;7.10;;;39.20;58.50;;;;;;4972552;28;20854;-72
2023/07/11 12:52:15;;;;;;;6.97;6.47;;;38.90;58.40;;;;;;4978182;28;20469;-72
2023/07/11 12:54:43;;;;;;;7.13;6.53;;;39.00;57.20;;;;;;4974703;28;20460;-72
2023/07/11 12:57:15;;;;;;;7.40;6.70;;;39.30;57.70;;;;;;4975065;28;20468;-70
2023/07/11 12:59:43;;;;;;;7.00;6.50;;;39.50;56.50;;;;;;4978196;28;20494;-72